DLH4YL EDDK-EDDH
Flight info
| Callsign | DLH4YL |
|---|---|
| Flight time | 0h 45m |
| Altitude | 27000 |
| Route | PODIP2Q PODIP Y867 PELUN DCT ANZIV DCT WRB Y867 TOLGI DCT SAS P605 NOLGO NOLGO3P |
| Aircraft | A320/M-SDE3FGHIRWY/LB1 |
Departure
| Time | 2026-04-22 19:35 |
|---|---|
| Airport | Cologne Bonn Airport (EDDK) |
Arrival
| Time | 2026-04-22 20:20 |
|---|---|
| Airport | Hamburg Helmut Schmidt Airport (EDDH) |
| Time | Latitude | Longitude | Altitude | Speed | Heading |
|---|---|---|---|---|---|
| 2026-04-22 19:00 | 50.87873 | 7.12462 | 232 ft | 0 kts | 288° |
| 2026-04-22 19:26 | 50.87873 | 7.12463 | 232 ft | 2 kts | 288° |
| 2026-04-22 19:26 | 50.87868 | 7.12487 | 233 ft | 4 kts | 285° |
| 2026-04-22 19:26 | 50.87861 | 7.12521 | 234 ft | 4 kts | 295° |
| 2026-04-22 19:26 | 50.87847 | 7.12556 | 234 ft | 4 kts | 321° |
| 2026-04-22 19:27 | 50.87824 | 7.12575 | 232 ft | 4 kts | 355° |
| 2026-04-22 19:27 | 50.87798 | 7.12571 | 234 ft | 4 kts | 19° |
| 2026-04-22 19:27 | 50.87773 | 7.12555 | 234 ft | 4 kts | 21° |
| 2026-04-22 19:27 | 50.87767 | 7.12551 | 233 ft | 0 kts | 18° |
| 2026-04-22 19:29 | 50.87778 | 7.12556 | 235 ft | 8 kts | 16° |
| 2026-04-22 19:30 | 50.87829 | 7.12585 | 232 ft | 13 kts | 24° |
| 2026-04-22 19:30 | 50.87947 | 7.12657 | 235 ft | 12 kts | 37° |
| 2026-04-22 19:30 | 50.87992 | 7.12746 | 236 ft | 6 kts | 63° |
| 2026-04-22 19:30 | 50.87996 | 7.12757 | 240 ft | 0 kts | 65° |
| 2026-04-22 19:33 | 50.87997 | 7.12762 | 236 ft | 4 kts | 65° |
| 2026-04-22 19:33 | 50.88006 | 7.12905 | 239 ft | 18 kts | 97° |
| 2026-04-22 19:33 | 50.87966 | 7.13026 | 239 ft | 4 kts | 134° |
| 2026-04-22 19:33 | 50.87963 | 7.13031 | 239 ft | 0 kts | 135° |
| 2026-04-22 19:34 | 50.87924 | 7.13091 | 239 ft | 34 kts | 137° |
| 2026-04-22 19:34 | 50.87558 | 7.13619 | 240 ft | 104 kts | 137° |
| 2026-04-22 19:35 | 50.86881 | 7.14596 | 262 ft | 156 kts | 138° |
| 2026-04-22 19:35 | 50.86025 | 7.15838 | 669 ft | 170 kts | 135° |
| 2026-04-22 19:35 | 50.85135 | 7.17132 | 1355 ft | 176 kts | 134° |
| 2026-04-22 19:35 | 50.84215 | 7.18469 | 1933 ft | 188 kts | 134° |
| 2026-04-22 19:36 | 50.83204 | 7.19945 | 2382 ft | 205 kts | 134° |
| 2026-04-22 19:36 | 50.82185 | 7.21527 | 3178 ft | 205 kts | 125° |
| 2026-04-22 19:36 | 50.81522 | 7.23495 | 4028 ft | 204 kts | 105° |
| 2026-04-22 19:36 | 50.81241 | 7.25765 | 4584 ft | 221 kts | 98° |
| 2026-04-22 19:37 | 50.81015 | 7.28307 | 4952 ft | 248 kts | 97° |
| 2026-04-22 19:37 | 50.80789 | 7.31094 | 5002 ft | 259 kts | 97° |
| 2026-04-22 19:37 | 50.80561 | 7.33922 | 5018 ft | 260 kts | 97° |
| 2026-04-22 19:37 | 50.80327 | 7.36762 | 5014 ft | 260 kts | 97° |
| 2026-04-22 19:38 | 50.80089 | 7.39605 | 5102 ft | 264 kts | 97° |
| 2026-04-22 19:38 | 50.79842 | 7.42503 | 5994 ft | 266 kts | 97° |
| 2026-04-22 19:38 | 50.79588 | 7.45407 | 6926 ft | 268 kts | 97° |
| 2026-04-22 19:38 | 50.79329 | 7.48332 | 7791 ft | 270 kts | 97° |
| 2026-04-22 19:39 | 50.79067 | 7.51283 | 8662 ft | 273 kts | 96° |
| 2026-04-22 19:39 | 50.78829 | 7.54224 | 9518 ft | 275 kts | 91° |
| 2026-04-22 19:39 | 50.78969 | 7.57278 | 10364 ft | 276 kts | 76° |
| 2026-04-22 19:39 | 50.79603 | 7.60200 | 10734 ft | 296 kts | 62° |
| 2026-04-22 19:40 | 50.80843 | 7.62934 | 10944 ft | 319 kts | 45° |
| 2026-04-22 19:40 | 50.82553 | 7.65362 | 11189 ft | 339 kts | 41° |
| 2026-04-22 19:40 | 50.84337 | 7.67853 | 11808 ft | 345 kts | 41° |
| 2026-04-22 19:40 | 50.86161 | 7.70423 | 12530 ft | 348 kts | 42° |
| 2026-04-22 19:41 | 50.87974 | 7.72996 | 13260 ft | 351 kts | 42° |
| 2026-04-22 19:41 | 50.89776 | 7.75557 | 13970 ft | 354 kts | 41° |
| 2026-04-22 19:41 | 50.91621 | 7.78178 | 14269 ft | 356 kts | 41° |
| 2026-04-22 19:41 | 50.93441 | 7.80836 | 14338 ft | 356 kts | 46° |
| 2026-04-22 19:42 | 50.94903 | 7.83694 | 14352 ft | 357 kts | 56° |
| 2026-04-22 19:42 | 50.96178 | 7.87068 | 14350 ft | 357 kts | 58° |
| 2026-04-22 19:42 | 50.97436 | 7.90472 | 14353 ft | 357 kts | 58° |
| 2026-04-22 19:42 | 50.98695 | 7.93869 | 14352 ft | 357 kts | 58° |
| 2026-04-22 19:43 | 51.01214 | 8.00680 | 14358 ft | 358 kts | 58° |
| 2026-04-22 19:43 | 51.02470 | 8.04086 | 14360 ft | 358 kts | 58° |
| 2026-04-22 19:43 | 51.03726 | 8.07502 | 14358 ft | 358 kts | 58° |
| 2026-04-22 19:44 | 51.04981 | 8.10923 | 14359 ft | 358 kts | 58° |
| 2026-04-22 19:44 | 51.06235 | 8.14345 | 14365 ft | 358 kts | 58° |
| 2026-04-22 19:44 | 51.07486 | 8.17768 | 14370 ft | 359 kts | 58° |
| 2026-04-22 19:44 | 51.08750 | 8.21226 | 14886 ft | 363 kts | 58° |
| 2026-04-22 19:45 | 51.10025 | 8.24710 | 15559 ft | 365 kts | 59° |
| 2026-04-22 19:45 | 51.11305 | 8.28216 | 16195 ft | 368 kts | 59° |
| 2026-04-22 19:45 | 51.12595 | 8.31763 | 16819 ft | 371 kts | 59° |
| 2026-04-22 19:45 | 51.13891 | 8.35336 | 17436 ft | 375 kts | 59° |
| 2026-04-22 19:46 | 51.15200 | 8.38945 | 18056 ft | 378 kts | 59° |
| 2026-04-22 19:46 | 51.16518 | 8.42593 | 18659 ft | 381 kts | 59° |
| 2026-04-22 19:46 | 51.17845 | 8.46273 | 19191 ft | 384 kts | 59° |
| 2026-04-22 19:46 | 51.19179 | 8.49982 | 19717 ft | 387 kts | 59° |
| 2026-04-22 19:47 | 51.20642 | 8.53596 | 20237 ft | 390 kts | 52° |
| 2026-04-22 19:47 | 51.22377 | 8.56940 | 20748 ft | 392 kts | 50° |
| 2026-04-22 19:47 | 51.24139 | 8.60288 | 21247 ft | 395 kts | 50° |
| 2026-04-22 19:47 | 51.25909 | 8.63653 | 21738 ft | 398 kts | 50° |
| 2026-04-22 19:48 | 51.27692 | 8.67051 | 22216 ft | 400 kts | 51° |
| 2026-04-22 19:48 | 51.29486 | 8.70482 | 22687 ft | 403 kts | 51° |
| 2026-04-22 19:48 | 51.31286 | 8.73933 | 23142 ft | 406 kts | 51° |
| 2026-04-22 19:48 | 51.33097 | 8.77414 | 23599 ft | 408 kts | 51° |
| 2026-04-22 19:49 | 51.34917 | 8.80918 | 23997 ft | 411 kts | 51° |
| 2026-04-22 19:49 | 51.36750 | 8.84448 | 24293 ft | 412 kts | 51° |
| 2026-04-22 19:49 | 51.38585 | 8.87977 | 24345 ft | 412 kts | 51° |
| 2026-04-22 19:49 | 51.40398 | 8.91456 | 24354 ft | 412 kts | 51° |
| 2026-04-22 19:50 | 51.42255 | 8.95021 | 24355 ft | 412 kts | 51° |
| 2026-04-22 19:50 | 51.44066 | 8.98508 | 24350 ft | 412 kts | 51° |
| 2026-04-22 19:50 | 51.45894 | 9.02037 | 24351 ft | 412 kts | 51° |
| 2026-04-22 19:50 | 51.47719 | 9.05571 | 24351 ft | 412 kts | 51° |
| 2026-04-22 19:51 | 51.49548 | 9.09107 | 24357 ft | 412 kts | 51° |
| 2026-04-22 19:51 | 51.51566 | 9.12371 | 24358 ft | 413 kts | 42° |
| 2026-04-22 19:51 | 51.53809 | 9.15276 | 24352 ft | 414 kts | 40° |
| 2026-04-22 19:51 | 51.56050 | 9.18166 | 24352 ft | 414 kts | 40° |
| 2026-04-22 19:52 | 51.58293 | 9.21072 | 24361 ft | 414 kts | 40° |
| 2026-04-22 19:52 | 51.60533 | 9.23986 | 24354 ft | 414 kts | 40° |
| 2026-04-22 19:52 | 51.62773 | 9.26905 | 24358 ft | 414 kts | 41° |
| 2026-04-22 19:52 | 51.65015 | 9.29831 | 24353 ft | 415 kts | 41° |
| 2026-04-22 19:53 | 51.67256 | 9.32755 | 24358 ft | 415 kts | 41° |
| 2026-04-22 19:53 | 51.69501 | 9.35688 | 24360 ft | 415 kts | 41° |
| 2026-04-22 19:53 | 51.71743 | 9.38620 | 24359 ft | 415 kts | 41° |
| 2026-04-22 19:53 | 51.73989 | 9.41554 | 24355 ft | 415 kts | 41° |
| 2026-04-22 19:54 | 51.76233 | 9.44491 | 24351 ft | 415 kts | 41° |
| 2026-04-22 19:54 | 51.78475 | 9.47434 | 24356 ft | 415 kts | 41° |
| 2026-04-22 19:54 | 51.80720 | 9.50381 | 24358 ft | 415 kts | 41° |
| 2026-04-22 19:54 | 51.83029 | 9.53201 | 24357 ft | 417 kts | 35° |
| 2026-04-22 19:55 | 51.85577 | 9.55475 | 24361 ft | 419 kts | 29° |
| 2026-04-22 19:55 | 51.88178 | 9.57603 | 24356 ft | 419 kts | 29° |
| 2026-04-22 19:55 | 51.90771 | 9.59743 | 24365 ft | 419 kts | 29° |
| 2026-04-22 19:55 | 51.93367 | 9.61896 | 24364 ft | 419 kts | 29° |
| 2026-04-22 19:56 | 51.95956 | 9.64050 | 24365 ft | 419 kts | 29° |
| 2026-04-22 19:56 | 51.98522 | 9.66187 | 24353 ft | 419 kts | 29° |
| 2026-04-22 19:56 | 52.01116 | 9.68347 | 24359 ft | 419 kts | 29° |
| 2026-04-22 19:56 | 52.03707 | 9.70510 | 24364 ft | 419 kts | 29° |
| 2026-04-22 19:57 | 52.06305 | 9.72684 | 24361 ft | 419 kts | 29° |
| 2026-04-22 19:57 | 52.08897 | 9.74854 | 24359 ft | 420 kts | 29° |
| 2026-04-22 19:57 | 52.11496 | 9.77026 | 24364 ft | 420 kts | 29° |
| 2026-04-22 19:57 | 52.14100 | 9.79205 | 24358 ft | 420 kts | 29° |
| 2026-04-22 19:58 | 52.16697 | 9.81382 | 24358 ft | 420 kts | 29° |
| 2026-04-22 19:58 | 52.19298 | 9.83567 | 24362 ft | 420 kts | 29° |
| 2026-04-22 19:58 | 52.21898 | 9.85749 | 24357 ft | 420 kts | 29° |
| 2026-04-22 19:58 | 52.24516 | 9.87863 | 24353 ft | 421 kts | 25° |
| 2026-04-22 19:59 | 52.27304 | 9.89400 | 24355 ft | 423 kts | 17° |
| 2026-04-22 20:00 | 52.44364 | 9.96903 | 24351 ft | 425 kts | 17° |
| 2026-04-22 20:00 | 52.47220 | 9.98169 | 24354 ft | 425 kts | 17° |
| 2026-04-22 20:01 | 52.50070 | 9.99435 | 24353 ft | 425 kts | 17° |
| 2026-04-22 20:01 | 52.52930 | 10.00707 | 24354 ft | 425 kts | 17° |
| 2026-04-22 20:01 | 52.55781 | 10.01976 | 24355 ft | 425 kts | 17° |
| 2026-04-22 20:01 | 52.58638 | 10.03248 | 24356 ft | 425 kts | 17° |
| 2026-04-22 20:02 | 52.61497 | 10.04522 | 24353 ft | 426 kts | 17° |
| 2026-04-22 20:02 | 52.64355 | 10.05800 | 24356 ft | 426 kts | 17° |
| 2026-04-22 20:02 | 52.67212 | 10.07075 | 24355 ft | 426 kts | 17° |
| 2026-04-22 20:02 | 52.70073 | 10.08355 | 24354 ft | 426 kts | 17° |
| 2026-04-22 20:03 | 52.72931 | 10.09636 | 24353 ft | 426 kts | 17° |
| 2026-04-22 20:03 | 52.75798 | 10.10915 | 24328 ft | 427 kts | 16° |
| 2026-04-22 20:03 | 52.78725 | 10.11740 | 24325 ft | 429 kts | 7° |
| 2026-04-22 20:03 | 52.81688 | 10.11923 | 24318 ft | 418 kts | 3° |
| 2026-04-22 20:04 | 52.84533 | 10.12016 | 24202 ft | 397 kts | 3° |
| 2026-04-22 20:04 | 52.87201 | 10.12098 | 24073 ft | 371 kts | 3° |
| 2026-04-22 20:04 | 52.89723 | 10.12173 | 23680 ft | 355 kts | 3° |
| 2026-04-22 20:04 | 52.92169 | 10.12247 | 23000 ft | 348 kts | 3° |
| 2026-04-22 20:05 | 52.94568 | 10.12325 | 22289 ft | 342 kts | 3° |
| 2026-04-22 20:05 | 52.96938 | 10.12403 | 21594 ft | 338 kts | 3° |
| 2026-04-22 20:05 | 52.99269 | 10.12481 | 20916 ft | 333 kts | 3° |
| 2026-04-22 20:05 | 53.01568 | 10.12559 | 20260 ft | 328 kts | 3° |
| 2026-04-22 20:06 | 53.03842 | 10.12638 | 19625 ft | 324 kts | 3° |
| 2026-04-22 20:06 | 53.06094 | 10.12717 | 19209 ft | 323 kts | 3° |
| 2026-04-22 20:06 | 53.08336 | 10.12847 | 18674 ft | 325 kts | 9° |
| 2026-04-22 20:06 | 53.10477 | 10.14011 | 17749 ft | 335 kts | 30° |
| 2026-04-22 20:07 | 53.12515 | 10.16142 | 16702 ft | 349 kts | 34° |
| 2026-04-22 20:07 | 53.14548 | 10.18411 | 15648 ft | 363 kts | 34° |
| 2026-04-22 20:07 | 53.16684 | 10.20812 | 14666 ft | 375 kts | 34° |
| 2026-04-22 20:07 | 53.18847 | 10.23250 | 13998 ft | 375 kts | 34° |
| 2026-04-22 20:08 | 53.20998 | 10.25683 | 13368 ft | 372 kts | 34° |
| 2026-04-22 20:08 | 53.23125 | 10.28109 | 12754 ft | 368 kts | 34° |
| 2026-04-22 20:08 | 53.25231 | 10.30532 | 12354 ft | 367 kts | 34° |
| 2026-04-22 20:08 | 53.27330 | 10.32959 | 12019 ft | 366 kts | 34° |
| 2026-04-22 20:09 | 53.29420 | 10.35388 | 11689 ft | 365 kts | 34° |
| 2026-04-22 20:09 | 53.31499 | 10.37816 | 11363 ft | 363 kts | 34° |
| 2026-04-22 20:09 | 53.32864 | 10.39418 | 11148 ft | 362 kts | 34° |
| 2026-04-22 20:09 | 53.34919 | 10.41840 | 10826 ft | 360 kts | 34° |
| 2026-04-22 20:10 | 53.36958 | 10.44256 | 10505 ft | 359 kts | 34° |
| 2026-04-22 20:10 | 53.38966 | 10.46650 | 10191 ft | 349 kts | 34° |
| 2026-04-22 20:10 | 53.40905 | 10.48975 | 9847 ft | 337 kts | 34° |
| 2026-04-22 20:10 | 53.42781 | 10.51235 | 9502 ft | 327 kts | 34° |
| 2026-04-22 20:11 | 53.44598 | 10.53433 | 9159 ft | 317 kts | 34° |
| 2026-04-22 20:11 | 53.46498 | 10.55165 | 8828 ft | 307 kts | 15° |
| 2026-04-22 20:11 | 53.48576 | 10.55453 | 8495 ft | 299 kts | 352° |
| 2026-04-22 20:11 | 53.50517 | 10.54344 | 8166 ft | 293 kts | 336° |
| 2026-04-22 20:12 | 53.52331 | 10.52849 | 7843 ft | 287 kts | 334° |
| 2026-04-22 20:12 | 53.54098 | 10.51359 | 7515 ft | 281 kts | 334° |
| 2026-04-22 20:12 | 53.55833 | 10.49892 | 7191 ft | 276 kts | 334° |
| 2026-04-22 20:12 | 53.57531 | 10.48459 | 6872 ft | 271 kts | 334° |
| 2026-04-22 20:13 | 53.59200 | 10.47051 | 6551 ft | 266 kts | 334° |
| 2026-04-22 20:13 | 53.60841 | 10.45667 | 6160 ft | 263 kts | 334° |
| 2026-04-22 20:13 | 53.62463 | 10.44303 | 5777 ft | 260 kts | 334° |
| 2026-04-22 20:13 | 53.64077 | 10.42951 | 5397 ft | 257 kts | 334° |
| 2026-04-22 20:14 | 53.65668 | 10.41623 | 5013 ft | 254 kts | 334° |
| 2026-04-22 20:14 | 53.67250 | 10.40311 | 4625 ft | 252 kts | 334° |
| 2026-04-22 20:14 | 53.68827 | 10.39026 | 4246 ft | 251 kts | 334° |
| 2026-04-22 20:14 | 53.70398 | 10.37764 | 3860 ft | 250 kts | 334° |
| 2026-04-22 20:15 | 53.71965 | 10.36518 | 3482 ft | 248 kts | 334° |
| 2026-04-22 20:15 | 53.73521 | 10.35285 | 3096 ft | 246 kts | 333° |
| 2026-04-22 20:15 | 53.74834 | 10.33516 | 2990 ft | 244 kts | 308° |
| 2026-04-22 20:15 | 53.75644 | 10.30993 | 3008 ft | 247 kts | 290° |
| 2026-04-22 20:16 | 53.75925 | 10.28125 | 3006 ft | 250 kts | 271° |
| 2026-04-22 20:16 | 53.75623 | 10.25224 | 3009 ft | 254 kts | 252° |
| 2026-04-22 20:16 | 53.74731 | 10.22622 | 3008 ft | 259 kts | 233° |
| 2026-04-22 20:16 | 53.73580 | 10.20275 | 3010 ft | 260 kts | 233° |
| 2026-04-22 20:17 | 53.72423 | 10.17922 | 2811 ft | 260 kts | 233° |
| 2026-04-22 20:17 | 53.71283 | 10.15598 | 2482 ft | 252 kts | 233° |
| 2026-04-22 20:17 | 53.70236 | 10.13468 | 2174 ft | 226 kts | 234° |
| 2026-04-22 20:17 | 53.69283 | 10.11529 | 1869 ft | 204 kts | 234° |
| 2026-04-22 20:18 | 53.68425 | 10.09782 | 1631 ft | 183 kts | 235° |
| 2026-04-22 20:18 | 53.67655 | 10.08215 | 1394 ft | 163 kts | 235° |
| 2026-04-22 20:18 | 53.66964 | 10.06810 | 1156 ft | 148 kts | 236° |
| 2026-04-22 20:18 | 53.66328 | 10.05516 | 953 ft | 140 kts | 236° |
| 2026-04-22 20:19 | 53.65718 | 10.04274 | 750 ft | 135 kts | 234° |
| 2026-04-22 20:19 | 53.65124 | 10.03066 | 568 ft | 133 kts | 233° |
| 2026-04-22 20:19 | 53.64535 | 10.01864 | 385 ft | 133 kts | 234° |
| 2026-04-22 20:19 | 53.63943 | 10.00675 | 207 ft | 133 kts | 233° |
| 2026-04-22 20:20 | 53.63361 | 9.99487 | 53 ft | 126 kts | 234° |
| 2026-04-22 20:20 | 53.62884 | 9.98510 | 44 ft | 85 kts | 230° |
| 2026-04-22 20:20 | 53.62617 | 9.97971 | 41 ft | 43 kts | 230° |
| 2026-04-22 20:20 | 53.62478 | 9.97797 | 41 ft | 16 kts | 168° |
| 2026-04-22 20:21 | 53.62426 | 9.97902 | 45 ft | 10 kts | 97° |
| 2026-04-22 20:21 | 53.62437 | 9.97992 | 45 ft | 8 kts | 75° |
| 2026-04-22 20:21 | 53.62478 | 9.98124 | 47 ft | 13 kts | 51° |
| 2026-04-22 20:21 | 53.62534 | 9.98237 | 47 ft | 12 kts | 49° |
| 2026-04-22 20:22 | 53.62620 | 9.98409 | 47 ft | 21 kts | 50° |
| 2026-04-22 20:22 | 53.62714 | 9.98598 | 47 ft | 21 kts | 50° |
| 2026-04-22 20:22 | 53.62812 | 9.98798 | 47 ft | 23 kts | 51° |
| 2026-04-22 20:22 | 53.62915 | 9.99005 | 47 ft | 20 kts | 50° |
| 2026-04-22 20:23 | 53.63001 | 9.99180 | 47 ft | 16 kts | 50° |
| 2026-04-22 20:23 | 53.63066 | 9.99324 | 47 ft | 15 kts | 55° |
| 2026-04-22 20:23 | 53.63121 | 9.99461 | 46 ft | 14 kts | 56° |
| 2026-04-22 20:23 | 53.63177 | 9.99580 | 46 ft | 12 kts | 50° |
| 2026-04-22 20:24 | 53.63223 | 9.99672 | 48 ft | 9 kts | 48° |
| 2026-04-22 20:24 | 53.63297 | 9.99802 | 48 ft | 18 kts | 49° |
| 2026-04-22 20:24 | 53.63374 | 9.99953 | 48 ft | 16 kts | 50° |
| 2026-04-22 20:24 | 53.63428 | 10.00080 | 48 ft | 10 kts | 75° |
| 2026-04-22 20:25 | 53.63401 | 10.00177 | 47 ft | 9 kts | 143° |
| 2026-04-22 20:25 | 53.63343 | 10.00199 | 48 ft | 8 kts | 175° |
| 2026-04-22 20:25 | 53.63296 | 10.00215 | 45 ft | 6 kts | 142° |
| 2026-04-22 20:25 | 53.63290 | 10.00271 | 48 ft | 5 kts | 89° |
| 2026-04-22 20:26 | 53.63291 | 10.00319 | 48 ft | 4 kts | 87° |
| 2026-04-22 20:26 | 53.63292 | 10.00351 | 48 ft | 2 kts | 87° |
| 2026-04-22 20:26 | 53.63292 | 10.00362 | 48 ft | 0 kts | 87° |